DW6340 Weather Reports


Display with metric or nautical units.
time (UTC)temp
F
wind
direction
speed
MPH
gust
MPH
rain 1hr
in
rain 24hr
in
rain mn
in
humidity
%
barometer
mb
20220706131535 47 347 0.0 0.0 0.00 0.28 0.02 91 1012.5
20220706130040 46 347 0.0 0.0 0.00 0.28 0.02 92 1012.4
20220706124534 45 347 0.0 0.0 0.00 0.28 0.02 91 1012.3
20220706123033 45 347 0.0 0.0 0.00 0.28 0.02 91 1012.2
20220706121531 45 347 0.0 0.0 0.00 0.28 0.02 91 1012.1
20220706120030 45 347 0.0 0.0 0.00 0.28 0.02 92 1011.8
20220706114528 45 347 0.0 0.0 0.00 0.28 0.02 92 1011.8
20220706113028 44 347 0.0 0.0 0.00 0.28 0.02 92 1011.6
20220706111527 44 347 0.0 1.0 0.00 0.28 0.02 92 1011.6
20220706110027 44 347 0.0 0.0 0.00 0.28 0.02 91 1011.2
20220706104524 44 347 0.0 0.0 0.00 0.28 0.02 91 1011.1
20220706103022 45 347 0.0 0.0 0.00 0.28 0.02 91 1010.7
20220706101520 45 347 0.0 0.0 0.00 0.28 0.02 91 1010.6
20220706100019 45 347 0.0 0.0 0.00 0.28 0.02 92 1010.6
20220706094518 44 347 0.0 0.0 0.00 0.28 0.02 91 1010.5
20220706093016 45 347 0.0 0.0 0.00 0.28 0.02 92 1010.4
20220706091515 45 347 0.0 0.0 0.00 0.28 0.02 91 1010.4
20220706090016 45 347 0.0 0.0 0.01 0.28 0.02 91 1009.8
20220706084518 45 347 0.0 0.0 0.01 0.28 0.02 91 1009.5
20220706083011 46 347 0.0 0.0 0.01 0.28 0.02 91 1009.5
20220706081511 46 347 0.0 0.0 0.01 0.28 0.02 91 1009.3
20220706080013 46 347 0.0 0.0 0.00 0.28 0.01 91 1009.2
20220706074507 46 347 0.0 0.0 0.00 0.28 0.01 90 1009.3
20220706073004 47 347 0.0 0.0 0.01 0.28 0.01 90 1009.6
20220706071503 47 347 0.0 0.0 0.01 0.28 0.01 91 1009.4
20220706070002 48 347 0.0 0.0 0.01 0.28 0.01 91 1009.7
20220706064559 48 347 0.0 1.0 0.01 0.28 0.01 92 1009.7
20220706063056 48 347 0.0 0.0 0.01 0.27 0.00 91 1010.0
20220706061553 49 347 0.0 2.0 0.01 0.27 0.00 92 1010.2
20220706060050 49 347 0.0 1.0 0.01 0.27 0.00 92 1010.4
20220706054550 50 347 0.0 2.0 0.02 0.27 0.27 92 1010.6
20220706053051 50 347 0.0 2.0 0.01 0.26 0.26 91 1010.5
20220706051549 50 347 0.0 2.0 0.02 0.26 0.26 91 1010.6
20220706050053 50 347 0.0 0.0 0.02 0.26 0.26 90 1010.9
20220706044550 50 347 0.0 1.0 0.01 0.25 0.25 90 1011.0
20220706043047 50 347 0.0 0.0 0.02 0.25 0.25 90 1011.0
20220706041556 50 347 0.0 0.0 0.01 0.24 0.24 90 1011.1
20220706040046 50 347 0.0 0.0 0.02 0.24 0.24 90 1011.1
20220706034546 51 347 0.0 0.0 0.02 0.24 0.24 91 1011.2
20220706033045 51 347 0.0 0.0 0.02 0.23 0.23 91 1011.2
20220706031547 50 347 0.0 0.0 0.02 0.23 0.23 91 1011.1
20220706030046 50 347 0.0 2.0 0.02 0.22 0.22 91 1011.1
20220706024544 51 347 0.0 1.0 0.02 0.22 0.22 91 1010.8
20220706023046 51 347 0.0 1.0 0.02 0.21 0.21 90 1011.0
20220706021544 51 347 0.0 1.0 0.03 0.21 0.21 90 1011.0
20220706020041 52 347 0.0 0.0 0.02 0.20 0.20 89 1010.7
20220706014539 52 347 0.0 3.0 0.03 0.20 0.20 88 1010.5
20220706013038 53 347 0.0 0.0 0.02 0.19 0.19 88 1010.2
20220706011540 53 347 0.0 0.0 0.02 0.18 0.18 88 1010.0
20220706010037 53 347 0.0 0.0 0.03 0.18 0.18 89 1009.9
20220706004536 54 347 0.0 0.0 0.03 0.19 0.17 89 1009.8
20220706003037 54 347 0.0 1.0 0.04 0.19 0.17 89 1009.6
20220706001535 54 149 0.0 0.0 0.04 0.18 0.16 89 1009.7
20220706000035 54 149 0.0 0.0 0.03 0.17 0.15 88 1009.5
20220705234534 53 149 0.0 2.0 0.04 0.17 0.14 87 1009.5
20220705233045 53 149 0.0 1.0 0.04 0.16 0.13 87 1009.6
20220705231539 54 149 0.0 0.0 0.04 0.15 0.12 87 1009.7
20220705230050 54 149 0.0 1.0 0.04 0.14 0.11 88 1009.9
20220705224532 54 150 0.0 2.0 0.04 0.13 0.10 88 1010.0
20220705223032 53 150 0.0 2.0 0.04 0.12 0.09 91 1010.2
20220705221531 52 150 0.0 1.0 0.04 0.11 0.08 91 1010.1
20220705220031 51 150 0.0 1.0 0.03 0.10 0.07 90 1010.1
20220705214530 52 150 0.0 3.0 0.02 0.10 0.06 89 1010.1
20220705213038 53 98 0.0 5.0 0.01 0.09 0.05 87 1010.2
20220705211528 57 169 0.0 4.0 0.00 0.08 0.04 79 1009.7
20220705210038 58 17 0.0 0.0 0.00 0.08 0.04 78 1008.7
20220705204527 59 19 0.0 0.0 0.00 0.10 0.04 70 1008.4
20220705203030 60 19 0.0 0.0 0.01 0.10 0.04 65 1008.3
20220705201531 59 299 0.0 1.0 0.01 0.10 0.04 67 1008.4
20220705200023 60 299 0.0 2.0 0.02 0.10 0.04 62 1008.4
20220705194522 60 299 0.0 2.0 0.03 0.10 0.04 67 1008.5
20220705193023 58 299 0.0 1.0 0.03 0.09 0.03 78 1008.7
20220705191525 56 299 0.0 1.0 0.03 0.09 0.03 84 1008.5
20220705190020 53 286 0.0 3.0 0.02 0.08 0.02 88 1008.6
20220705184520 52 261 1.0 8.0 0.01 0.07 0.01 83 1009.1
20220705183018 55 184 1.0 7.0 0.00 0.06 0.00 75 1009.4
20220705181523 59 285 0.0 4.0 0.00 0.06 0.00 68 1008.8
20220705180014 60 294 0.0 4.0 0.00 0.06 0.00 60 1008.1
20220705174516 62 281 0.0 8.0 0.00 0.06 0.00 60 1007.7
20220705173019 64 300 0.0 5.0 0.00 0.06 0.00 54 1007.5
20220705171513 67 323 0.0 1.0 0.00 0.06 0.00 52 1007.5
20220705170012 67 323 0.0 2.0 0.00 0.06 0.00 51 1007.5
20220705164520 68 93 0.0 3.0 0.00 0.06 0.00 53 1007.4
20220705163009 68 157 0.0 2.0 0.00 0.06 0.00 55 1007.6
20220705161505 66 158 0.0 1.0 0.00 0.06 0.00 58 1007.7
20220705160005 65 158 0.0 0.0 0.00 0.06 0.00 56 1007.8
20220705154603 63 158 0.0 0.0 0.00 0.06 0.00 65 1008.0
20220705153106 62 158 0.0 1.0 0.00 0.06 0.00 64 1008.1
20220705151552 61 158 0.0 1.0 0.00 0.06 0.00 66 1008.2
20220705150046 59 158 0.0 0.0 0.00 0.06 0.00 69 1008.3
20220705144546 58 158 0.0 0.0 0.00 0.06 0.00 68 1008.6
20220705143044 57 158 0.0 0.0 0.00 0.06 0.00 71 1008.8
20220705141539 55 158 0.0 0.0 0.00 0.06 0.00 75 1008.7
20220705140030 53 158 0.0 0.0 0.00 0.06 0.00 77 1008.7
20220705134544 53 158 0.0 1.0 0.00 0.06 0.00 75 1008.8
20220705133029 53 158 0.0 2.0 0.00 0.06 0.00 73 1008.8